sensor_id;sensor_type;location;lat;lon;timestamp;P1;durP1;ratioP1;P2;durP2;ratioP2
55254;SDS011;41118;44.634;11.182;2022-12-29T00:01:52;50.28;;;22.48;;
55254;SDS011;41118;44.634;11.182;2022-12-29T00:04:18;48.85;;;21.50;;
55254;SDS011;41118;44.634;11.182;2022-12-29T00:06:44;54.50;;;24.20;;
55254;SDS011;41118;44.634;11.182;2022-12-29T00:09:11;52.53;;;22.38;;
55254;SDS011;41118;44.634;11.182;2022-12-29T00:11:37;63.50;;;22.60;;
55254;SDS011;41118;44.634;11.182;2022-12-29T00:14:04;63.50;;;25.85;;
55254;SDS011;41118;44.634;11.182;2022-12-29T00:16:48;71.75;;;25.02;;
55254;SDS011;41118;44.634;11.182;2022-12-29T00:19:14;52.95;;;23.35;;
55254;SDS011;41118;44.634;11.182;2022-12-29T00:24:44;59.80;;;26.33;;
55254;SDS011;41118;44.634;11.182;2022-12-29T00:27:29;62.47;;;25.02;;
55254;SDS011;41118;44.634;11.182;2022-12-29T00:30:15;57.33;;;22.92;;
55254;SDS011;41118;44.634;11.182;2022-12-29T00:32:59;58.53;;;22.33;;
55254;SDS011;41118;44.634;11.182;2022-12-29T00:35:51;55.47;;;21.90;;
55254;SDS011;41118;44.634;11.182;2022-12-29T00:38:18;56.72;;;23.35;;
55254;SDS011;41118;44.634;11.182;2022-12-29T00:41:03;61.38;;;23.42;;
55254;SDS011;41118;44.634;11.182;2022-12-29T00:43:47;62.63;;;23.02;;
55254;SDS011;41118;44.634;11.182;2022-12-29T00:46:32;52.35;;;22.98;;
55254;SDS011;41118;44.634;11.182;2022-12-29T00:48:59;54.20;;;22.30;;
55254;SDS011;41118;44.634;11.182;2022-12-29T00:51:44;55.67;;;23.25;;
55254;SDS011;41118;44.634;11.182;2022-12-29T00:54:10;56.40;;;20.73;;
55254;SDS011;41118;44.634;11.182;2022-12-29T00:56:36;57.67;;;24.83;;
55254;SDS011;41118;44.634;11.182;2022-12-29T00:59:06;57.55;;;21.58;;
55254;SDS011;41118;44.634;11.182;2022-12-29T01:01:33;64.68;;;24.45;;
55254;SDS011;41118;44.634;11.182;2022-12-29T01:03:59;64.15;;;24.35;;
55254;SDS011;41118;44.634;11.182;2022-12-29T01:06:26;63.25;;;23.67;;
55254;SDS011;41118;44.634;11.182;2022-12-29T01:08:52;59.75;;;22.63;;
55254;SDS011;41118;44.634;11.182;2022-12-29T01:11:37;58.15;;;22.88;;
55254;SDS011;41118;44.634;11.182;2022-12-29T01:14:04;54.10;;;20.67;;
55254;SDS011;41118;44.634;11.182;2022-12-29T01:16:30;46.47;;;21.67;;
55254;SDS011;41118;44.634;11.182;2022-12-29T01:18:57;56.88;;;23.63;;
55254;SDS011;41118;44.634;11.182;2022-12-29T01:21:23;61.85;;;24.50;;
55254;SDS011;41118;44.634;11.182;2022-12-29T01:23:49;55.47;;;22.40;;
55254;SDS011;41118;44.634;11.182;2022-12-29T01:26:16;63.60;;;23.48;;
55254;SDS011;41118;44.634;11.182;2022-12-29T01:28:43;57.00;;;22.58;;
55254;SDS011;41118;44.634;11.182;2022-12-29T01:31:09;62.85;;;22.45;;
55254;SDS011;41118;44.634;11.182;2022-12-29T01:33:35;52.10;;;23.20;;
55254;SDS011;41118;44.634;11.182;2022-12-29T01:36:05;67.25;;;26.77;;
55254;SDS011;41118;44.634;11.182;2022-12-29T01:38:32;54.88;;;22.05;;
55254;SDS011;41118;44.634;11.182;2022-12-29T01:40:58;52.55;;;21.23;;
55254;SDS011;41118;44.634;11.182;2022-12-29T01:46:08;50.00;;;22.08;;
55254;SDS011;41118;44.634;11.182;2022-12-29T01:48:39;43.83;;;20.13;;
55254;SDS011;41118;44.634;11.182;2022-12-29T01:51:05;52.75;;;19.70;;
55254;SDS011;41118;44.634;11.182;2022-12-29T01:53:32;47.90;;;19.73;;
55254;SDS011;41118;44.634;11.182;2022-12-29T01:55:59;60.88;;;23.15;;
55254;SDS011;41118;44.634;11.182;2022-12-29T01:58:29;53.90;;;17.08;;
55254;SDS011;41118;44.634;11.182;2022-12-29T02:00:56;57.33;;;22.38;;
55254;SDS011;41118;44.634;11.182;2022-12-29T02:03:23;51.92;;;21.60;;
55254;SDS011;41118;44.634;11.182;2022-12-29T02:05:58;55.75;;;22.77;;
55254;SDS011;41118;44.634;11.182;2022-12-29T02:08:28;52.72;;;23.15;;
55254;SDS011;41118;44.634;11.182;2022-12-29T02:10:57;55.25;;;19.88;;
55254;SDS011;41118;44.634;11.182;2022-12-29T02:13:25;41.75;;;20.17;;
55254;SDS011;41118;44.634;11.182;2022-12-29T02:23:44;64.88;;;23.73;;
55254;SDS011;41118;44.634;11.182;2022-12-29T02:26:26;66.78;;;24.27;;
55254;SDS011;41118;44.634;11.182;2022-12-29T02:37:30;55.15;;;22.40;;
55254;SDS011;41118;44.634;11.182;2022-12-29T02:45:13;60.50;;;25.63;;
55254;SDS011;41118;44.634;11.182;2022-12-29T02:50:14;56.63;;;21.48;;
55254;SDS011;41118;44.634;11.182;2022-12-29T02:53:04;54.17;;;23.15;;
55254;SDS011;41118;44.634;11.182;2022-12-29T02:55:27;57.88;;;22.70;;
55254;SDS011;41118;44.634;11.182;2022-12-29T03:03:25;47.47;;;19.88;;
55254;SDS011;41118;44.634;11.182;2022-12-29T03:09:03;51.97;;;18.80;;
55254;SDS011;41118;44.634;11.182;2022-12-29T03:11:21;64.03;;;20.70;;
55254;SDS011;41118;44.634;11.182;2022-12-29T03:17:15;58.72;;;22.33;;
55254;SDS011;41118;44.634;11.182;2022-12-29T03:19:45;55.33;;;22.38;;
55254;SDS011;41118;44.634;11.182;2022-12-29T03:22:15;49.72;;;19.55;;
55254;SDS011;41118;44.634;11.182;2022-12-29T03:24:53;50.15;;;23.25;;
55254;SDS011;41118;44.634;11.182;2022-12-29T03:27:25;59.67;;;21.48;;
55254;SDS011;41118;44.634;11.182;2022-12-29T03:29:54;49.38;;;20.25;;
55254;SDS011;41118;44.634;11.182;2022-12-29T03:32:21;55.35;;;22.70;;
55254;SDS011;41118;44.634;11.182;2022-12-29T03:34:49;57.63;;;22.98;;
55254;SDS011;41118;44.634;11.182;2022-12-29T03:37:17;58.15;;;24.30;;
55254;SDS011;41118;44.634;11.182;2022-12-29T03:39:44;58.20;;;24.58;;
55254;SDS011;41118;44.634;11.182;2022-12-29T03:42:14;61.78;;;23.55;;
55254;SDS011;41118;44.634;11.182;2022-12-29T03:44:42;59.38;;;22.98;;
55254;SDS011;41118;44.634;11.182;2022-12-29T03:47:12;57.65;;;21.38;;
55254;SDS011;41118;44.634;11.182;2022-12-29T03:49:39;47.58;;;20.23;;
55254;SDS011;41118;44.634;11.182;2022-12-29T03:52:05;62.83;;;21.52;;
55254;SDS011;41118;44.634;11.182;2022-12-29T03:54:32;57.42;;;22.52;;
55254;SDS011;41118;44.634;11.182;2022-12-29T03:56:58;57.08;;;23.75;;
55254;SDS011;41118;44.634;11.182;2022-12-29T03:59:24;61.97;;;23.42;;
55254;SDS011;41118;44.634;11.182;2022-12-29T04:01:51;52.15;;;20.63;;
55254;SDS011;41118;44.634;11.182;2022-12-29T04:04:17;56.08;;;22.73;;
55254;SDS011;41118;44.634;11.182;2022-12-29T04:06:43;58.67;;;21.75;;
55254;SDS011;41118;44.634;11.182;2022-12-29T04:09:09;57.35;;;23.45;;
55254;SDS011;41118;44.634;11.182;2022-12-29T04:11:36;64.05;;;25.63;;
55254;SDS011;41118;44.634;11.182;2022-12-29T04:14:02;56.05;;;23.45;;
55254;SDS011;41118;44.634;11.182;2022-12-29T04:16:28;43.17;;;21.05;;
55254;SDS011;41118;44.634;11.182;2022-12-29T04:18:55;58.67;;;21.55;;
55254;SDS011;41118;44.634;11.182;2022-12-29T04:21:21;63.83;;;20.63;;
55254;SDS011;41118;44.634;11.182;2022-12-29T04:23:47;45.80;;;20.65;;
55254;SDS011;41118;44.634;11.182;2022-12-29T04:26:14;49.95;;;22.95;;
55254;SDS011;41118;44.634;11.182;2022-12-29T04:28:40;54.63;;;22.13;;
55254;SDS011;41118;44.634;11.182;2022-12-29T04:31:06;48.95;;;19.42;;
55254;SDS011;41118;44.634;11.182;2022-12-29T04:33:33;49.00;;;21.75;;
55254;SDS011;41118;44.634;11.182;2022-12-29T04:35:59;55.63;;;22.17;;
55254;SDS011;41118;44.634;11.182;2022-12-29T04:38:25;57.72;;;22.00;;
55254;SDS011;41118;44.634;11.182;2022-12-29T04:40:51;57.67;;;24.67;;
55254;SDS011;41118;44.634;11.182;2022-12-29T04:43:17;55.10;;;22.05;;
55254;SDS011;41118;44.634;11.182;2022-12-29T04:45:49;52.95;;;21.58;;
55254;SDS011;41118;44.634;11.182;2022-12-29T04:48:15;62.05;;;22.13;;
55254;SDS011;41118;44.634;11.182;2022-12-29T04:50:41;54.20;;;22.25;;
55254;SDS011;41118;44.634;11.182;2022-12-29T04:53:07;52.55;;;20.98;;
55254;SDS011;41118;44.634;11.182;2022-12-29T04:55:34;55.95;;;21.23;;
55254;SDS011;41118;44.634;11.182;2022-12-29T04:58:00;47.28;;;18.95;;
55254;SDS011;41118;44.634;11.182;2022-12-29T05:00:26;50.15;;;21.23;;
55254;SDS011;41118;44.634;11.182;2022-12-29T05:02:52;51.97;;;22.42;;
55254;SDS011;41118;44.634;11.182;2022-12-29T05:05:18;57.75;;;23.58;;
55254;SDS011;41118;44.634;11.182;2022-12-29T05:07:45;57.90;;;24.35;;
55254;SDS011;41118;44.634;11.182;2022-12-29T05:10:11;51.22;;;21.95;;
55254;SDS011;41118;44.634;11.182;2022-12-29T05:12:37;53.20;;;19.98;;
55254;SDS011;41118;44.634;11.182;2022-12-29T05:15:04;57.95;;;20.88;;
55254;SDS011;41118;44.634;11.182;2022-12-29T05:17:31;44.33;;;19.83;;
55254;SDS011;41118;44.634;11.182;2022-12-29T05:19:57;53.58;;;22.33;;
55254;SDS011;41118;44.634;11.182;2022-12-29T05:22:23;55.20;;;22.73;;
55254;SDS011;41118;44.634;11.182;2022-12-29T05:24:50;54.17;;;20.98;;
55254;SDS011;41118;44.634;11.182;2022-12-29T05:27:16;49.95;;;22.75;;
55254;SDS011;41118;44.634;11.182;2022-12-29T05:29:42;49.05;;;20.35;;
55254;SDS011;41118;44.634;11.182;2022-12-29T05:32:08;45.00;;;19.05;;
55254;SDS011;41118;44.634;11.182;2022-12-29T05:34:34;59.28;;;22.92;;
55254;SDS011;41118;44.634;11.182;2022-12-29T05:37:00;57.28;;;21.65;;
55254;SDS011;41118;44.634;11.182;2022-12-29T05:39:27;59.47;;;19.67;;
55254;SDS011;41118;44.634;11.182;2022-12-29T05:41:53;56.67;;;21.45;;
55254;SDS011;41118;44.634;11.182;2022-12-29T05:44:19;56.95;;;22.27;;
55254;SDS011;41118;44.634;11.182;2022-12-29T05:46:46;40.63;;;17.75;;
55254;SDS011;41118;44.634;11.182;2022-12-29T05:49:12;51.40;;;21.83;;
55254;SDS011;41118;44.634;11.182;2022-12-29T05:51:38;52.35;;;21.90;;
55254;SDS011;41118;44.634;11.182;2022-12-29T05:54:04;56.42;;;22.08;;
55254;SDS011;41118;44.634;11.182;2022-12-29T05:56:30;49.47;;;24.17;;
55254;SDS011;41118;44.634;11.182;2022-12-29T05:58:56;55.47;;;21.65;;
55254;SDS011;41118;44.634;11.182;2022-12-29T06:01:22;56.95;;;22.50;;
55254;SDS011;41118;44.634;11.182;2022-12-29T06:03:49;54.38;;;22.50;;
55254;SDS011;41118;44.634;11.182;2022-12-29T06:06:15;56.67;;;22.58;;
55254;SDS011;41118;44.634;11.182;2022-12-29T06:08:42;51.63;;;20.05;;
55254;SDS011;41118;44.634;11.182;2022-12-29T06:11:08;57.22;;;22.60;;
55254;SDS011;41118;44.634;11.182;2022-12-29T06:13:34;57.42;;;21.58;;
55254;SDS011;41118;44.634;11.182;2022-12-29T06:16:00;43.85;;;18.77;;
55254;SDS011;41118;44.634;11.182;2022-12-29T06:18:27;49.03;;;19.70;;
55254;SDS011;41118;44.634;11.182;2022-12-29T06:20:53;52.65;;;21.35;;
55254;SDS011;41118;44.634;11.182;2022-12-29T06:23:19;54.33;;;19.70;;
55254;SDS011;41118;44.634;11.182;2022-12-29T06:25:46;53.85;;;20.77;;
55254;SDS011;41118;44.634;11.182;2022-12-29T06:28:13;49.30;;;21.95;;
55254;SDS011;41118;44.634;11.182;2022-12-29T06:30:40;52.88;;;23.20;;
55254;SDS011;41118;44.634;11.182;2022-12-29T06:33:08;46.08;;;17.17;;
55254;SDS011;41118;44.634;11.182;2022-12-29T06:35:34;51.38;;;18.35;;
55254;SDS011;41118;44.634;11.182;2022-12-29T06:38:00;71.97;;;22.77;;
55254;SDS011;41118;44.634;11.182;2022-12-29T06:40:26;52.72;;;23.02;;
55254;SDS011;41118;44.634;11.182;2022-12-29T06:42:52;48.58;;;21.70;;
55254;SDS011;41118;44.634;11.182;2022-12-29T06:45:18;51.60;;;20.23;;
55254;SDS011;41118;44.634;11.182;2022-12-29T06:47:44;38.33;;;14.23;;
55254;SDS011;41118;44.634;11.182;2022-12-29T06:50:10;57.05;;;20.25;;
55254;SDS011;41118;44.634;11.182;2022-12-29T06:52:37;52.83;;;17.42;;
55254;SDS011;41118;44.634;11.182;2022-12-29T06:55:03;61.72;;;23.13;;
55254;SDS011;41118;44.634;11.182;2022-12-29T06:57:29;39.35;;;17.98;;
55254;SDS011;41118;44.634;11.182;2022-12-29T06:59:55;44.40;;;17.23;;
55254;SDS011;41118;44.634;11.182;2022-12-29T07:02:22;41.05;;;17.73;;
55254;SDS011;41118;44.634;11.182;2022-12-29T07:04:50;56.03;;;21.13;;
55254;SDS011;41118;44.634;11.182;2022-12-29T07:07:17;56.97;;;20.75;;
55254;SDS011;41118;44.634;11.182;2022-12-29T07:09:43;53.33;;;22.77;;
55254;SDS011;41118;44.634;11.182;2022-12-29T07:12:09;48.38;;;18.30;;
55254;SDS011;41118;44.634;11.182;2022-12-29T07:14:36;44.33;;;17.98;;
55254;SDS011;41118;44.634;11.182;2022-12-29T07:17:02;48.60;;;19.15;;
55254;SDS011;41118;44.634;11.182;2022-12-29T07:19:33;58.78;;;20.55;;
55254;SDS011;41118;44.634;11.182;2022-12-29T07:22:00;59.63;;;20.88;;
55254;SDS011;41118;44.634;11.182;2022-12-29T07:24:26;49.90;;;21.15;;
55254;SDS011;41118;44.634;11.182;2022-12-29T07:26:52;52.88;;;23.13;;
55254;SDS011;41118;44.634;11.182;2022-12-29T07:29:18;49.28;;;18.58;;
55254;SDS011;41118;44.634;11.182;2022-12-29T07:31:45;54.00;;;22.38;;
55254;SDS011;41118;44.634;11.182;2022-12-29T07:34:11;46.40;;;18.45;;
55254;SDS011;41118;44.634;11.182;2022-12-29T07:36:37;44.40;;;17.40;;
55254;SDS011;41118;44.634;11.182;2022-12-29T07:39:03;50.78;;;20.23;;
55254;SDS011;41118;44.634;11.182;2022-12-29T07:41:30;50.38;;;20.50;;
55254;SDS011;41118;44.634;11.182;2022-12-29T07:43:56;55.85;;;21.02;;
55254;SDS011;41118;44.634;11.182;2022-12-29T07:46:22;52.92;;;20.75;;
55254;SDS011;41118;44.634;11.182;2022-12-29T07:48:48;47.65;;;20.25;;
55254;SDS011;41118;44.634;11.182;2022-12-29T07:51:15;56.65;;;21.50;;
55254;SDS011;41118;44.634;11.182;2022-12-29T07:53:41;58.03;;;20.98;;
55254;SDS011;41118;44.634;11.182;2022-12-29T07:56:07;59.28;;;20.67;;
55254;SDS011;41118;44.634;11.182;2022-12-29T07:58:34;55.28;;;22.98;;
55254;SDS011;41118;44.634;11.182;2022-12-29T08:01:00;45.75;;;19.70;;
55254;SDS011;41118;44.634;11.182;2022-12-29T08:03:26;49.45;;;19.25;;
55254;SDS011;41118;44.634;11.182;2022-12-29T08:05:52;38.03;;;18.35;;
55254;SDS011;41118;44.634;11.182;2022-12-29T08:08:19;52.20;;;20.60;;
55254;SDS011;41118;44.634;11.182;2022-12-29T08:10:45;52.17;;;22.42;;
55254;SDS011;41118;44.634;11.182;2022-12-29T08:13:12;47.30;;;19.35;;
55254;SDS011;41118;44.634;11.182;2022-12-29T08:15:38;54.88;;;21.17;;
55254;SDS011;41118;44.634;11.182;2022-12-29T08:18:04;48.55;;;20.05;;
55254;SDS011;41118;44.634;11.182;2022-12-29T08:20:30;48.28;;;21.02;;
55254;SDS011;41118;44.634;11.182;2022-12-29T08:22:56;61.85;;;22.27;;
55254;SDS011;41118;44.634;11.182;2022-12-29T08:25:22;56.80;;;24.40;;
55254;SDS011;41118;44.634;11.182;2022-12-29T08:27:48;55.05;;;22.75;;
55254;SDS011;41118;44.634;11.182;2022-12-29T08:30:14;48.22;;;19.95;;
55254;SDS011;41118;44.634;11.182;2022-12-29T08:32:40;50.05;;;21.83;;
55254;SDS011;41118;44.634;11.182;2022-12-29T08:35:06;49.08;;;21.02;;
55254;SDS011;41118;44.634;11.182;2022-12-29T08:37:33;49.63;;;19.05;;
55254;SDS011;41118;44.634;11.182;2022-12-29T08:39:59;41.08;;;17.48;;
55254;SDS011;41118;44.634;11.182;2022-12-29T08:42:28;51.55;;;19.75;;
55254;SDS011;41118;44.634;11.182;2022-12-29T08:44:56;53.00;;;20.10;;
55254;SDS011;41118;44.634;11.182;2022-12-29T08:47:22;51.40;;;19.92;;
55254;SDS011;41118;44.634;11.182;2022-12-29T08:49:48;54.03;;;22.40;;
55254;SDS011;41118;44.634;11.182;2022-12-29T08:52:15;58.28;;;21.73;;
55254;SDS011;41118;44.634;11.182;2022-12-29T08:54:41;52.58;;;20.30;;
55254;SDS011;41118;44.634;11.182;2022-12-29T08:57:07;53.45;;;20.48;;
55254;SDS011;41118;44.634;11.182;2022-12-29T08:59:33;53.75;;;22.73;;
55254;SDS011;41118;44.634;11.182;2022-12-29T09:01:59;53.13;;;19.58;;
55254;SDS011;41118;44.634;11.182;2022-12-29T09:04:26;58.25;;;19.42;;
55254;SDS011;41118;44.634;11.182;2022-12-29T09:06:53;49.42;;;19.17;;
55254;SDS011;41118;44.634;11.182;2022-12-29T09:09:19;58.65;;;21.33;;
55254;SDS011;41118;44.634;11.182;2022-12-29T09:11:45;55.25;;;20.83;;
55254;SDS011;41118;44.634;11.182;2022-12-29T09:14:12;51.53;;;20.70;;
55254;SDS011;41118;44.634;11.182;2022-12-29T09:16:38;54.70;;;21.83;;
55254;SDS011;41118;44.634;11.182;2022-12-29T09:19:25;56.30;;;22.10;;
55254;SDS011;41118;44.634;11.182;2022-12-29T09:21:51;50.28;;;21.75;;
55254;SDS011;41118;44.634;11.182;2022-12-29T09:24:17;51.33;;;18.75;;
55254;SDS011;41118;44.634;11.182;2022-12-29T09:26:43;55.08;;;21.10;;
55254;SDS011;41118;44.634;11.182;2022-12-29T09:29:10;48.95;;;20.45;;
55254;SDS011;41118;44.634;11.182;2022-12-29T09:31:36;55.55;;;20.65;;
55254;SDS011;41118;44.634;11.182;2022-12-29T09:34:02;50.45;;;20.05;;
55254;SDS011;41118;44.634;11.182;2022-12-29T09:36:28;54.10;;;19.63;;
55254;SDS011;41118;44.634;11.182;2022-12-29T09:38:54;53.25;;;18.40;;
55254;SDS011;41118;44.634;11.182;2022-12-29T09:41:22;49.65;;;18.25;;
55254;SDS011;41118;44.634;11.182;2022-12-29T09:46:24;45.53;;;18.52;;
55254;SDS011;41118;44.634;11.182;2022-12-29T09:49:05;53.20;;;20.27;;
55254;SDS011;41118;44.634;11.182;2022-12-29T09:51:32;45.60;;;19.05;;
55254;SDS011;41118;44.634;11.182;2022-12-29T09:54:04;49.72;;;19.85;;
55254;SDS011;41118;44.634;11.182;2022-12-29T09:56:35;40.28;;;16.50;;
55254;SDS011;41118;44.634;11.182;2022-12-29T09:59:22;41.05;;;18.17;;
55254;SDS011;41118;44.634;11.182;2022-12-29T10:01:53;42.60;;;16.27;;
55254;SDS011;41118;44.634;11.182;2022-12-29T10:04:22;49.50;;;16.50;;
55254;SDS011;41118;44.634;11.182;2022-12-29T10:06:55;47.20;;;19.15;;
55254;SDS011;41118;44.634;11.182;2022-12-29T10:09:31;43.50;;;17.17;;
55254;SDS011;41118;44.634;11.182;2022-12-29T10:12:23;44.30;;;17.02;;
55254;SDS011;41118;44.634;11.182;2022-12-29T10:22:29;45.03;;;16.23;;
55254;SDS011;41118;44.634;11.182;2022-12-29T10:24:58;47.97;;;16.05;;
55254;SDS011;41118;44.634;11.182;2022-12-29T10:27:29;44.75;;;18.85;;
55254;SDS011;41118;44.634;11.182;2022-12-29T10:29:56;45.42;;;17.48;;
55254;SDS011;41118;44.634;11.182;2022-12-29T10:32:31;41.78;;;15.15;;
55254;SDS011;41118;44.634;11.182;2022-12-29T10:35:00;48.08;;;17.25;;
55254;SDS011;41118;44.634;11.182;2022-12-29T10:37:34;46.22;;;16.80;;
55254;SDS011;41118;44.634;11.182;2022-12-29T10:40:11;44.72;;;16.17;;
55254;SDS011;41118;44.634;11.182;2022-12-29T10:42:42;43.17;;;14.73;;
55254;SDS011;41118;44.634;11.182;2022-12-29T10:45:12;36.42;;;12.82;;
55254;SDS011;41118;44.634;11.182;2022-12-29T10:47:41;37.25;;;14.95;;
55254;SDS011;41118;44.634;11.182;2022-12-29T10:50:12;26.33;;;9.93;;
55254;SDS011;41118;44.634;11.182;2022-12-29T10:52:38;25.13;;;10.55;;
55254;SDS011;41118;44.634;11.182;2022-12-29T10:55:12;26.17;;;10.52;;
55254;SDS011;41118;44.634;11.182;2022-12-29T10:57:40;35.17;;;14.00;;
55254;SDS011;41118;44.634;11.182;2022-12-29T11:00:15;27.00;;;12.32;;
55254;SDS011;41118;44.634;11.182;2022-12-29T11:07:46;31.65;;;12.32;;
55254;SDS011;41118;44.634;11.182;2022-12-29T11:10:17;33.42;;;11.10;;
55254;SDS011;41118;44.634;11.182;2022-12-29T11:13:10;30.02;;;11.50;;
55254;SDS011;41118;44.634;11.182;2022-12-29T11:15:40;28.33;;;10.50;;
55254;SDS011;41118;44.634;11.182;2022-12-29T11:18:17;21.00;;;7.32;;
55254;SDS011;41118;44.634;11.182;2022-12-29T11:20:43;24.67;;;7.55;;
55254;SDS011;41118;44.634;11.182;2022-12-29T11:23:23;31.65;;;8.82;;
55254;SDS011;41118;44.634;11.182;2022-12-29T11:26:24;24.55;;;8.18;;
55254;SDS011;41118;44.634;11.182;2022-12-29T11:28:44;32.40;;;9.48;;
55254;SDS011;41118;44.634;11.182;2022-12-29T11:31:12;21.80;;;8.18;;
55254;SDS011;41118;44.634;11.182;2022-12-29T11:33:41;27.25;;;9.07;;
55254;SDS011;41118;44.634;11.182;2022-12-29T11:38:37;26.75;;;7.97;;
55254;SDS011;41118;44.634;11.182;2022-12-29T11:41:05;17.73;;;8.20;;
55254;SDS011;41118;44.634;11.182;2022-12-29T11:43:36;22.75;;;8.63;;
55254;SDS011;41118;44.634;11.182;2022-12-29T11:46:03;22.92;;;8.73;;
55254;SDS011;41118;44.634;11.182;2022-12-29T11:48:40;23.15;;;8.27;;
55254;SDS011;41118;44.634;11.182;2022-12-29T11:51:07;19.17;;;6.93;;
55254;SDS011;41118;44.634;11.182;2022-12-29T11:53:43;23.52;;;8.20;;
55254;SDS011;41118;44.634;11.182;2022-12-29T11:56:20;24.60;;;7.95;;
55254;SDS011;41118;44.634;11.182;2022-12-29T11:58:47;21.17;;;6.72;;
55254;SDS011;41118;44.634;11.182;2022-12-29T12:01:17;17.33;;;6.15;;
55254;SDS011;41118;44.634;11.182;2022-12-29T12:03:48;20.77;;;7.63;;
55254;SDS011;41118;44.634;11.182;2022-12-29T12:06:19;18.95;;;6.82;;
55254;SDS011;41118;44.634;11.182;2022-12-29T12:08:53;23.10;;;6.97;;
55254;SDS011;41118;44.634;11.182;2022-12-29T12:11:21;22.92;;;7.20;;
55254;SDS011;41118;44.634;11.182;2022-12-29T12:14:02;24.27;;;8.02;;
55254;SDS011;41118;44.634;11.182;2022-12-29T12:16:52;19.83;;;8.40;;
55254;SDS011;41118;44.634;11.182;2022-12-29T12:22:21;21.13;;;9.30;;
55254;SDS011;41118;44.634;11.182;2022-12-29T12:25:24;25.52;;;9.13;;
55254;SDS011;41118;44.634;11.182;2022-12-29T12:27:45;22.85;;;8.57;;
55254;SDS011;41118;44.634;11.182;2022-12-29T12:30:23;23.85;;;8.45;;
55254;SDS011;41118;44.634;11.182;2022-12-29T12:32:54;21.98;;;8.10;;
55254;SDS011;41118;44.634;11.182;2022-12-29T12:43:36;19.52;;;8.75;;
55254;SDS011;41118;44.634;11.182;2022-12-29T12:54:03;24.08;;;8.10;;
55254;SDS011;41118;44.634;11.182;2022-12-29T12:56:36;26.02;;;7.60;;
55254;SDS011;41118;44.634;11.182;2022-12-29T12:59:09;23.60;;;7.97;;
55254;SDS011;41118;44.634;11.182;2022-12-29T13:09:23;23.27;;;8.05;;
55254;SDS011;41118;44.634;11.182;2022-12-29T13:12:10;24.95;;;10.15;;
55254;SDS011;41118;44.634;11.182;2022-12-29T13:22:39;16.23;;;5.68;;
55254;SDS011;41118;44.634;11.182;2022-12-29T13:27:49;24.83;;;8.13;;
55254;SDS011;41118;44.634;11.182;2022-12-29T13:30:17;22.27;;;8.68;;
55254;SDS011;41118;44.634;11.182;2022-12-29T13:37:57;19.23;;;6.38;;
55254;SDS011;41118;44.634;11.182;2022-12-29T13:40:26;22.02;;;7.38;;
55254;SDS011;41118;44.634;11.182;2022-12-29T13:42:54;17.63;;;7.00;;
55254;SDS011;41118;44.634;11.182;2022-12-29T13:45:22;21.27;;;7.82;;
55254;SDS011;41118;44.634;11.182;2022-12-29T13:50:36;25.27;;;7.78;;
55254;SDS011;41118;44.634;11.182;2022-12-29T13:55:49;22.98;;;6.07;;
55254;SDS011;41118;44.634;11.182;2022-12-29T14:00:46;23.35;;;8.90;;
55254;SDS011;41118;44.634;11.182;2022-12-29T14:06:42;22.90;;;8.00;;
55254;SDS011;41118;44.634;11.182;2022-12-29T14:08:53;20.85;;;6.70;;
55254;SDS011;41118;44.634;11.182;2022-12-29T14:11:21;20.63;;;8.63;;
55254;SDS011;41118;44.634;11.182;2022-12-29T14:13:49;23.23;;;7.38;;
55254;SDS011;41118;44.634;11.182;2022-12-29T14:16:31;17.60;;;7.00;;
55254;SDS011;41118;44.634;11.182;2022-12-29T14:19:38;26.33;;;8.55;;
55254;SDS011;41118;44.634;11.182;2022-12-29T14:22:00;22.10;;;8.18;;
55254;SDS011;41118;44.634;11.182;2022-12-29T14:27:00;20.92;;;7.25;;
55254;SDS011;41118;44.634;11.182;2022-12-29T14:31:56;21.58;;;7.68;;
55254;SDS011;41118;44.634;11.182;2022-12-29T14:34:27;18.70;;;7.50;;
55254;SDS011;41118;44.634;11.182;2022-12-29T14:39:30;21.30;;;9.40;;
55254;SDS011;41118;44.634;11.182;2022-12-29T14:42:00;26.73;;;6.90;;
55254;SDS011;41118;44.634;11.182;2022-12-29T14:44:27;20.63;;;8.27;;
55254;SDS011;41118;44.634;11.182;2022-12-29T14:49:20;20.85;;;8.27;;
55254;SDS011;41118;44.634;11.182;2022-12-29T14:51:48;21.80;;;9.90;;
55254;SDS011;41118;44.634;11.182;2022-12-29T14:54:34;27.27;;;10.27;;
55254;SDS011;41118;44.634;11.182;2022-12-29T14:57:07;26.33;;;9.25;;
55254;SDS011;41118;44.634;11.182;2022-12-29T14:59:33;23.85;;;9.45;;
55254;SDS011;41118;44.634;11.182;2022-12-29T15:02:04;24.30;;;9.48;;
55254;SDS011;41118;44.634;11.182;2022-12-29T15:04:37;31.27;;;11.23;;
55254;SDS011;41118;44.634;11.182;2022-12-29T15:07:06;28.52;;;9.85;;
55254;SDS011;41118;44.634;11.182;2022-12-29T15:09:34;30.80;;;12.18;;
55254;SDS011;41118;44.634;11.182;2022-12-29T15:12:22;27.65;;;10.48;;
55254;SDS011;41118;44.634;11.182;2022-12-29T15:14:52;31.30;;;11.43;;
55254;SDS011;41118;44.634;11.182;2022-12-29T15:17:23;26.35;;;12.43;;
55254;SDS011;41118;44.634;11.182;2022-12-29T15:19:49;31.73;;;11.02;;
55254;SDS011;41118;44.634;11.182;2022-12-29T15:22:15;26.55;;;12.05;;
55254;SDS011;41118;44.634;11.182;2022-12-29T15:24:42;34.05;;;11.23;;
55254;SDS011;41118;44.634;11.182;2022-12-29T15:27:10;26.80;;;12.25;;
55254;SDS011;41118;44.634;11.182;2022-12-29T15:29:39;30.23;;;11.32;;
55254;SDS011;41118;44.634;11.182;2022-12-29T15:34:41;31.77;;;12.18;;
55254;SDS011;41118;44.634;11.182;2022-12-29T15:37:08;28.27;;;13.98;;
55254;SDS011;41118;44.634;11.182;2022-12-29T15:39:34;29.23;;;12.23;;
55254;SDS011;41118;44.634;11.182;2022-12-29T15:44:37;29.35;;;10.10;;
55254;SDS011;41118;44.634;11.182;2022-12-29T15:47:04;27.75;;;10.10;;
55254;SDS011;41118;44.634;11.182;2022-12-29T15:49:30;29.95;;;11.15;;
55254;SDS011;41118;44.634;11.182;2022-12-29T15:51:57;27.05;;;10.75;;
55254;SDS011;41118;44.634;11.182;2022-12-29T15:54:23;24.52;;;11.60;;
55254;SDS011;41118;44.634;11.182;2022-12-29T15:56:50;33.38;;;11.77;;
55254;SDS011;41118;44.634;11.182;2022-12-29T15:59:29;26.48;;;11.75;;
55254;SDS011;41118;44.634;11.182;2022-12-29T16:01:56;34.58;;;11.50;;
55254;SDS011;41118;44.634;11.182;2022-12-29T16:04:23;36.00;;;12.63;;
55254;SDS011;41118;44.634;11.182;2022-12-29T16:07:03;26.98;;;10.70;;
55254;SDS011;41118;44.634;11.182;2022-12-29T16:09:32;23.67;;;11.20;;
55254;SDS011;41118;44.634;11.182;2022-12-29T16:12:00;31.70;;;11.43;;
55254;SDS011;41118;44.634;11.182;2022-12-29T16:14:39;29.55;;;11.52;;
55254;SDS011;41118;44.634;11.182;2022-12-29T16:17:09;29.63;;;10.48;;
55254;SDS011;41118;44.634;11.182;2022-12-29T16:19:37;28.20;;;11.00;;
55254;SDS011;41118;44.634;11.182;2022-12-29T16:22:09;31.33;;;11.25;;
55254;SDS011;41118;44.634;11.182;2022-12-29T16:24:36;33.33;;;10.75;;
55254;SDS011;41118;44.634;11.182;2022-12-29T16:27:07;28.40;;;11.52;;
55254;SDS011;41118;44.634;11.182;2022-12-29T16:29:34;22.38;;;8.65;;
55254;SDS011;41118;44.634;11.182;2022-12-29T16:32:00;23.20;;;8.95;;